Terminal Aerodrome Forecast
Issued by NWS Dodge City, KS

Home | Current Version | Previous Version | Text Only | Print | Product List | Glossary Off
Versions: 1 2 3 4 5 6 7 8 9 10 11 12 13 14 15 16 17 18 19 20 21 22 23 24 25 26 27 28 29 30 31 32 33 34 35 36 37 38 39 40 41 42 43 44 45 46 47 48 49

000
FTUS43 KDDC 191120
TAFDDC
TAF
KDDC 191120Z 1912/2012 11018G27KT P6SM VCTS BKN030CB
     FM191430 11020G28KT 5SM -TSRA BKN018CB
     FM192300 07013G20KT 5SM -RA OVC008
     FM200200 02013G20KT 4SM -TSRA OVC003CB=

USA.gov is the U.S. government's official web portal to all federal, state and local government web resources and services.